Manila, Arkansas
Current Conditions -  °F | °C
As of 3:53 PM on Saturday 25 Oct 2014 (Local Time) from KHKA Reporting Station
Clear Clear  
Wind Chill: 84°   Ceiling: Unl
Heat Index: 85°   Visibility: 10mi
Dew Point: 64°   Wind: 5mph
Humidity: 51%   Direction: NA
Pressure: 30"   Gusts: NA
Location:  35.88°N, 90.17°W
Report Text: KHKA 252053Z AUTO VRB04KT 10SM CLR 29/18 A3000 RMK AO2 SLP158 T02890178 56015
Loading
Personal Weather Stations






























Interactive Weather Map
Tropical Storm Tracking
New forecast layout! Learn more

10-Day Weather Forecast

Advertisements
Track Severe Weather on mobile